Time;durP1;ratioP1;P1;durP2;ratioP2;P2;SDS_P1;SDS_P2;PMS_P1;PMS_P2;Temp;Humidity;BMP_temperature;BMP_pressure;BME280_temperature;BME280_humidity;BME280_pressure;Samples;Min_cycle;Max_cycle;Signal;HPM_P1;HPM_P2
2023/06/18 00:00:55;;;;;;;3.17;1.88;;;;;;;18.75;57.89;100453.91;5064266;28;20031;-62
2023/06/18 00:03:20;;;;;;;5.15;2.17;;;;;;;18.74;57.78;100441.66;5064274;28;20040;-62
2023/06/18 00:05:45;;;;;;;3.25;2.15;;;;;;;18.76;57.82;100452.97;5064322;28;20024;-64
2023/06/18 00:08:11;;;;;;;5.88;1.63;;;;;;;18.74;57.62;100443.44;5064416;28;20093;-63
2023/06/18 00:10:37;;;;;;;3.20;2.03;;;;;;;18.63;57.99;100439.47;5065921;28;20025;-62
2023/06/18 00:13:02;;;;;;;2.40;2.15;;;;;;;18.66;58.54;100441.97;5068356;28;20024;-63
2023/06/18 00:15:27;;;;;;;3.78;2.20;;;;;;;18.75;58.18;100458.28;5068005;28;20028;-63
2023/06/18 00:17:53;;;;;;;4.32;1.85;;;;;;;18.73;58.30;100462.75;5068345;28;20029;-64
2023/06/18 00:20:18;;;;;;;3.03;2.13;;;;;;;18.70;59.00;100479.53;5068028;28;20069;-63
2023/06/18 00:22:48;;;;;;;3.15;2.33;;;;;;;18.54;59.50;100477.53;5068225;28;20160;-63
2023/06/18 00:25:13;;;;;;;3.83;2.65;;;;;;;18.46;59.82;100474.34;5068290;28;20051;-63
2023/06/18 00:27:40;;;;;;;4.72;2.65;;;;;;;18.33;59.82;100450.34;5068079;28;20028;-63
2023/06/18 00:30:06;;;;;;;2.92;2.22;;;;;;;18.25;59.83;100432.25;5067918;28;20021;-63
2023/06/18 00:32:32;;;;;;;1.98;1.70;;;;;;;18.29;60.52;100425.13;5068004;28;20029;-63
2023/06/18 00:35:00;;;;;;;7.85;2.95;;;;;;;18.24;60.95;100408.69;5067801;28;20024;-64
2023/06/18 00:37:27;;;;;;;2.83;1.65;;;;;;;18.27;61.41;100417.28;5068150;28;20048;-63
2023/06/18 00:39:54;;;;;;;2.97;2.22;;;;;;;18.29;61.61;100422.50;5068027;28;20044;-63
2023/06/18 00:42:20;;;;;;;3.58;2.30;;;;;;;18.30;61.76;100411.91;5068087;28;20017;-63
2023/06/18 00:44:46;;;;;;;2.85;2.35;;;;;;;18.36;61.81;100402.91;5067638;28;20029;-63
2023/06/18 00:47:12;;;;;;;8.05;3.17;;;;;;;18.38;62.02;100402.84;5068004;28;20028;-63
2023/06/18 00:49:44;;;;;;;5.38;2.60;;;;;;;18.42;62.05;100407.03;5067688;28;20154;-63
2023/06/18 00:52:13;;;;;;;3.10;2.25;;;;;;;18.47;61.73;100417.41;5067406;28;20024;-63
2023/06/18 00:54:40;;;;;;;2.45;1.77;;;;;;;18.51;61.09;100416.34;5067711;28;20107;-63
2023/06/18 00:57:08;;;;;;;3.60;1.98;;;;;;;18.60;60.77;100429.09;5067850;28;20024;-63
2023/06/18 00:59:37;;;;;;;2.38;1.75;;;;;;;18.62;60.59;100423.78;5067473;28;20021;-63
2023/06/18 01:02:03;;;;;;;2.53;1.98;;;;;;;18.57;60.49;100419.56;5067471;28;20482;-63
2023/06/18 01:04:32;;;;;;;1.95;1.65;;;;;;;18.53;60.51;100415.34;5067432;28;20025;-63
2023/06/18 01:06:59;;;;;;;3.28;1.92;;;;;;;18.56;60.94;100419.63;5067490;28;20480;-63
2023/06/18 01:09:26;;;;;;;3.47;2.30;;;;;;;18.56;60.62;100412.59;5066196;28;20060;-63
2023/06/18 01:11:52;;;;;;;3.30;2.17;;;;;;;18.58;60.74;100412.53;5067305;28;20044;-63
2023/06/18 01:14:21;;;;;;;4.22;2.22;;;;;;;18.47;61.19;100405.09;5067298;28;20029;-63
2023/06/18 01:16:49;;;;;;;6.50;2.25;;;;;;;18.56;60.56;100409.97;5066764;28;20021;-63
2023/06/18 01:19:56;;;;;;;4.80;2.15;;;;;;;18.61;60.28;100404.50;5067099;28;20044;-63
2023/06/18 01:22:26;;;;;;;3.17;2.42;;;;;;;18.61;60.72;100411.56;5065171;28;20508;-63
2023/06/18 01:24:57;;;;;;;5.43;1.63;;;;;;;18.58;60.75;100416.00;5067197;28;20044;-63
2023/06/18 01:27:25;;;;;;;3.63;2.73;;;;;;;18.63;60.32;100418.44;5067032;28;20025;-63
2023/06/18 01:29:51;;;;;;;2.20;2.00;;;;;;;18.64;60.42;100408.78;5066906;28;20021;-63
2023/06/18 01:32:17;;;;;;;5.03;2.38;;;;;;;18.63;60.51;100415.81;5066945;28;20021;-63
2023/06/18 01:34:43;;;;;;;3.47;2.17;;;;;;;18.60;60.96;100409.81;5066917;28;20103;-63
2023/06/18 01:37:24;;;;;;;4.22;2.53;;;;;;;18.65;61.04;100413.13;5067114;28;20040;-63
2023/06/18 01:40:02;;;;;;;3.22;2.45;;;;;;;18.60;61.59;100417.72;5067127;28;20025;-63
2023/06/18 01:42:32;;;;;;;3.53;2.25;;;;;;;18.58;61.02;100408.13;5066772;28;20090;-63
2023/06/18 01:45:08;;;;;;;3.72;2.55;;;;;;;18.61;60.76;100419.44;5066650;28;20021;-63
2023/06/18 01:47:34;;;;;;;3.03;2.28;;;;;;;18.66;60.14;100425.34;5066911;28;20017;-63
2023/06/18 01:50:02;;;;;;;2.45;1.67;;;;;;;18.60;60.08;100420.34;5066457;28;20104;-62
2023/06/18 01:52:30;;;;;;;4.63;2.17;;;;;;;18.62;59.85;100431.66;5066685;28;20084;-63
2023/06/18 01:54:59;;;;;;;3.42;2.30;;;;;;;18.62;59.59;100439.53;5066552;28;20025;-63
2023/06/18 01:57:25;;;;;;;3.65;2.20;;;;;;;18.62;60.13;100450.94;5066558;28;20107;-63
2023/06/18 01:59:51;;;;;;;3.65;2.88;;;;;;;18.55;60.60;100452.09;5066256;28;20033;-64
2023/06/18 02:02:16;;;;;;;3.75;2.55;;;;;;;18.57;60.34;100474.78;5065248;28;20013;-64
2023/06/18 02:04:43;;;;;;;2.33;1.90;;;;;;;18.50;61.05;100473.31;5065211;28;20116;-65
2023/06/18 02:07:10;;;;;;;3.45;2.50;;;;;;;18.40;61.44;100482.50;5066129;28;20048;-64
2023/06/18 02:09:36;;;;;;;4.65;2.67;;;;;;;18.30;61.77;100480.25;5066425;28;20036;-63
2023/06/18 02:12:01;;;;;;;2.72;2.05;;;;;;;18.25;61.60;100478.69;5065943;28;20091;-64
2023/06/18 02:14:27;;;;;;;3.72;2.63;;;;;;;18.21;61.67;100475.34;5064952;28;20036;-64
2023/06/18 02:16:55;;;;;;;3.83;2.22;;;;;;;18.14;61.76;100469.47;5066087;28;20025;-65
2023/06/18 02:19:21;;;;;;;2.47;2.15;;;;;;;18.11;61.76;100458.19;5066016;28;20071;-63
2023/06/18 02:21:46;;;;;;;3.88;2.72;;;;;;;18.11;61.78;100466.06;5066275;28;20021;-63
2023/06/18 02:24:11;;;;;;;2.83;2.45;;;;;;;18.04;61.58;100454.94;5066146;28;20101;-64
2023/06/18 02:26:37;;;;;;;2.25;1.73;;;;;;;18.14;61.29;100465.97;5066094;28;20055;-64
2023/06/18 02:29:02;;;;;;;3.15;2.20;;;;;;;18.13;61.18;100470.38;5065872;28;20050;-64
2023/06/18 02:31:28;;;;;;;3.63;2.35;;;;;;;18.08;61.31;100470.53;5065982;28;20017;-66
2023/06/18 02:33:53;;;;;;;4.40;2.40;;;;;;;17.96;62.10;100474.50;5064562;28;20429;-66
2023/06/18 02:36:18;;;;;;;2.25;2.00;;;;;;;17.79;62.88;100469.03;5065949;28;20648;-67
2023/06/18 02:38:44;;;;;;;6.20;2.92;;;;;;;17.60;63.54;100474.97;5065924;28;20085;-72
2023/06/18 02:41:10;;;;;;;4.18;2.53;;;;;;;17.38;64.34;100467.03;5065940;28;20432;-69
2023/06/18 02:43:36;;;;;;;4.25;3.15;;;;;;;17.16;65.41;100475.63;5065900;28;20024;-66
2023/06/18 02:46:01;;;;;;;3.88;2.25;;;;;;;16.89;66.57;100471.28;5065758;28;20032;-67
2023/06/18 02:48:27;;;;;;;4.57;2.83;;;;;;;16.66;67.94;100459.78;5065892;28;20027;-66
2023/06/18 02:50:52;;;;;;;3.45;2.22;;;;;;;16.58;69.16;100467.06;5065846;28;20051;-65
2023/06/18 02:53:18;;;;;;;5.47;2.75;;;;;;;16.49;70.39;100462.97;5065896;28;20021;-65
2023/06/18 02:55:43;;;;;;;3.65;2.53;;;;;;;16.41;71.38;100460.59;5065687;28;20338;-66
2023/06/18 02:58:30;;;;;;;3.78;2.85;;;;;;;16.35;72.40;100461.66;5065412;28;20061;-64
2023/06/18 03:00:56;;;;;;;5.28;2.90;;;;;;;16.38;73.22;100470.31;5065526;28;20268;-65
2023/06/18 03:03:21;;;;;;;3.90;2.58;;;;;;;16.37;74.06;100476.47;5065584;28;20548;-65
2023/06/18 03:05:47;;;;;;;7.45;3.53;;;;;;;16.38;74.69;100471.19;5065585;28;20027;-64
2023/06/18 03:08:13;;;;;;;4.63;2.90;;;;;;;16.43;75.37;100479.75;5065587;28;20020;-64
2023/06/18 03:10:39;;;;;;;5.95;2.63;;;;;;;16.44;75.88;100470.09;5064146;28;20078;-65
2023/06/18 03:13:04;;;;;;;4.15;3.17;;;;;;;16.44;76.27;100468.34;5097545;28;20113;-65
2023/06/18 03:15:30;;;;;;;3.35;2.47;;;;;;;16.42;76.86;100467.53;5065023;28;20017;-65
2023/06/18 03:17:55;;;;;;;7.68;3.53;;;;;;;16.43;77.40;100456.16;5065578;28;20060;-65
2023/06/18 03:20:21;;;;;;;7.40;2.83;;;;;;;16.44;78.16;100459.63;5065057;28;20075;-64
2023/06/18 03:22:46;;;;;;;7.25;3.28;;;;;;;16.44;78.89;100459.63;5065226;28;20019;-64
2023/06/18 03:25:12;;;;;;;7.65;2.92;;;;;;;16.47;79.28;100464.75;5065182;28;20447;-64
2023/06/18 03:27:37;;;;;;;5.15;3.13;;;;;;;16.46;79.60;100468.31;5065153;28;20032;-64
2023/06/18 03:30:06;;;;;;;6.05;2.95;;;;;;;16.44;79.89;100451.75;5064935;28;20025;-66
2023/06/18 03:32:32;;;;;;;3.95;3.22;;;;;;;16.43;80.43;100436.97;5064947;28;20033;-65
2023/06/18 03:34:58;;;;;;;3.05;2.58;;;;;;;16.43;80.97;100444.81;5065060;28;20424;-65
2023/06/18 03:37:23;;;;;;;5.15;3.28;;;;;;;16.42;81.41;100436.09;5065152;28;20051;-65
2023/06/18 03:39:49;;;;;;;4.43;3.05;;;;;;;16.44;81.86;100436.03;5065038;28;20032;-65
2023/06/18 03:42:15;;;;;;;10.23;4.03;;;;;;;16.47;82.58;100435.94;5064865;28;20027;-66
2023/06/18 03:44:40;;;;;;;4.78;3.30;;;;;;;16.54;83.37;100433.97;5064448;28;20024;-65
2023/06/18 03:47:06;;;;;;;7.90;3.58;;;;;;;16.60;83.67;100428.53;5064819;28;20095;-64
2023/06/18 03:49:32;;;;;;;5.53;3.47;;;;;;;16.65;83.94;100429.25;5064898;28;20052;-65
2023/06/18 03:51:57;;;;;;;4.22;2.72;;;;;;;16.69;84.42;100422.16;5064677;28;20032;-65
2023/06/18 03:54:26;;;;;;;6.03;4.20;;;;;;;16.72;84.79;100429.91;5063597;28;20029;-65
2023/06/18 03:56:51;;;;;;;5.13;3.78;;;;;;;16.77;85.12;100435.00;5064836;28;20021;-65
2023/06/18 03:59:17;;;;;;;5.13;3.17;;;;;;;16.82;85.71;100436.53;5064681;28;20084;-65
2023/06/18 04:01:42;;;;;;;7.38;3.97;;;;;;;16.91;86.11;100438.00;5064609;28;20020;-65
2023/06/18 04:04:08;;;;;;;4.95;3.28;;;;;;;16.95;86.56;100423.00;5063286;28;20025;-65
2023/06/18 04:06:34;;;;;;;4.55;2.97;;;;;;;17.01;86.67;100414.06;5064628;28;20052;-65
2023/06/18 04:08:59;;;;;;;12.52;3.50;;;;;;;17.11;87.17;100425.13;5064698;28;20053;-65
2023/06/18 04:11:25;;;;;;;5.05;3.45;;;;;;;17.14;88.24;100423.22;5064456;28;20025;-65
2023/06/18 04:13:50;;;;;;;3.85;2.60;;;;;;;17.26;88.48;100421.09;5064526;28;20105;-64
2023/06/18 04:16:16;;;;;;;5.32;2.63;;;;;;;17.37;88.84;100424.19;5064353;28;20020;-64
2023/06/18 04:18:41;;;;;;;3.50;3.08;;;;;;;17.40;88.98;100413.56;5064654;28;20029;-64
2023/06/18 04:21:06;;;;;;;4.57;3.20;;;;;;;17.50;89.16;100421.97;5064317;28;20099;-66
2023/06/18 04:23:32;;;;;;;4.25;3.38;;;;;;;17.52;88.82;100427.16;5063169;28;20021;-65
2023/06/18 04:25:57;;;;;;;3.88;2.95;;;;;;;17.56;88.70;100426.09;5064579;28;20029;-65
2023/06/18 04:28:23;;;;;;;5.25;3.20;;;;;;;17.54;88.93;100418.28;5063122;28;20032;-64
2023/06/18 04:30:48;;;;;;;4.90;3.17;;;;;;;17.54;89.45;100420.91;5064299;28;20032;-65
2023/06/18 04:33:14;;;;;;;5.55;3.53;;;;;;;17.54;89.34;100410.41;5063158;28;20036;-65
2023/06/18 04:35:39;;;;;;;9.02;4.40;;;;;;;17.57;89.47;100423.44;5064432;28;20078;-65
2023/06/18 04:38:06;;;;;;;4.63;3.33;;;;;;;17.63;89.07;100422.34;5064373;28;20076;-64
2023/06/18 04:40:31;;;;;;;4.93;3.67;;;;;;;17.62;89.16;100430.28;5063974;28;20029;-64
2023/06/18 04:42:57;;;;;;;5.85;3.63;;;;;;;17.56;89.19;100424.34;5062872;28;20035;-64
2023/06/18 04:45:23;;;;;;;5.05;3.45;;;;;;;17.57;89.03;100422.59;5062658;28;20037;-64
2023/06/18 04:47:48;;;;;;;4.72;3.38;;;;;;;17.65;88.88;100440.69;5064120;28;20024;-64
2023/06/18 04:50:14;;;;;;;7.18;3.25;;;;;;;17.54;88.74;100415.66;5063936;28;20047;-63
2023/06/18 04:52:39;;;;;;;4.70;2.90;;;;;;;17.60;88.71;100425.09;5064025;28;20051;-64
2023/06/18 04:55:05;;;;;;;5.00;2.97;;;;;;;17.57;88.88;100431.31;5063860;28;20025;-64
2023/06/18 04:57:31;;;;;;;7.93;3.85;;;;;;;17.58;89.75;100432.16;5065433;28;20368;-65
2023/06/18 04:59:56;;;;;;;6.32;3.10;;;;;;;17.69;90.29;100439.63;5067339;28;20051;-64
2023/06/18 05:02:21;;;;;;;5.63;3.67;;;;;;;17.57;89.54;100412.94;5067750;28;20116;-64
2023/06/18 05:04:47;;;;;;;8.43;4.18;;;;;;;17.75;89.85;100446.44;5067527;28;20021;-64
2023/06/18 05:07:12;;;;;;;6.32;4.05;;;;;;;17.71;89.63;100429.94;5067461;28;20110;-63
2023/06/18 05:09:39;;;;;;;3.42;2.53;;;;;;;17.81;89.57;100444.41;5066143;28;20112;-64
2023/06/18 05:12:05;;;;;;;5.30;3.47;;;;;;;17.81;89.24;100441.78;5067152;28;20029;-65
2023/06/18 05:14:31;;;;;;;9.02;3.95;;;;;;;17.83;89.69;100452.22;5067442;28;20081;-64
2023/06/18 05:16:56;;;;;;;5.07;4.18;;;;;;;17.85;89.23;100442.53;5067358;28;20029;-64
2023/06/18 05:19:21;;;;;;;12.88;4.82;;;;;;;17.86;88.92;100449.47;5066971;28;20055;-64
2023/06/18 05:21:47;;;;;;;5.90;3.72;;;;;;;17.86;89.32;100451.28;5067428;28;20036;-64
2023/06/18 05:24:12;;;;;;;4.93;3.38;;;;;;;17.81;88.85;100448.84;5067239;28;20021;-65
2023/06/18 05:26:38;;;;;;;5.18;4.13;;;;;;;17.80;89.20;100455.84;5067086;28;20377;-64
2023/06/18 05:29:03;;;;;;;4.88;3.85;;;;;;;17.79;89.39;100446.25;5066955;28;20052;-64
2023/06/18 05:31:29;;;;;;;6.20;4.32;;;;;;;17.76;88.97;100454.25;5066901;28;20405;-64
2023/06/18 05:33:54;;;;;;;8.07;4.32;;;;;;;17.74;89.15;100448.19;5067106;28;20032;-64
2023/06/18 05:36:22;;;;;;;9.85;4.72;;;;;;;17.73;88.80;100449.13;5066865;28;20025;-63
2023/06/18 05:38:48;;;;;;;5.00;4.05;;;;;;;17.70;88.79;100449.22;5066915;28;20424;-65
2023/06/18 05:41:14;;;;;;;6.43;4.45;;;;;;;17.72;89.18;100452.63;5066808;28;20047;-64
2023/06/18 05:43:39;;;;;;;7.03;3.63;;;;;;;17.71;88.93;100450.94;5066821;28;20473;-64
2023/06/18 05:46:05;;;;;;;6.15;4.22;;;;;;;17.71;88.85;100451.81;5065548;28;20024;-64
2023/06/18 05:48:30;;;;;;;6.35;4.75;;;;;;;17.76;89.11;100466.53;5067087;28;20017;-64
2023/06/18 05:50:56;;;;;;;6.32;4.55;;;;;;;17.75;89.08;100464.81;5066440;28;20111;-65
2023/06/18 05:53:21;;;;;;;4.72;4.05;;;;;;;17.75;88.99;100451.69;5066436;28;20036;-65
2023/06/18 05:55:47;;;;;;;10.00;5.38;;;;;;;17.76;89.08;100470.00;5066824;28;20029;-63
2023/06/18 05:58:12;;;;;;;6.90;4.95;;;;;;;17.71;89.28;100478.06;5066447;28;20078;-65
2023/06/18 06:00:37;;;;;;;5.22;4.13;;;;;;;17.64;89.14;100468.69;5066532;28;20082;-64
2023/06/18 06:03:03;;;;;;;7.25;4.93;;;;;;;17.64;89.37;100467.81;5066557;28;20048;-65
2023/06/18 06:05:29;;;;;;;6.88;4.97;;;;;;;17.62;89.61;100459.16;5066460;28;20032;-64
2023/06/18 06:07:54;;;;;;;6.45;4.78;;;;;;;17.67;89.87;100468.56;5066003;28;20025;-64
2023/06/18 06:10:20;;;;;;;8.30;3.97;;;;;;;17.74;90.38;100469.19;5066657;28;20056;-64
2023/06/18 06:12:45;;;;;;;5.78;4.47;;;;;;;17.76;89.68;100470.00;5065972;28;20049;-63
2023/06/18 06:15:11;;;;;;;6.93;4.80;;;;;;;17.75;89.50;100468.28;5066159;28;20067;-64
2023/06/18 06:17:37;;;;;;;6.43;4.88;;;;;;;17.77;89.90;100468.22;5066336;28;20047;-65
2023/06/18 06:20:03;;;;;;;5.38;4.85;;;;;;;17.82;89.85;100469.78;5064539;28;20055;-65
2023/06/18 06:22:29;;;;;;;6.88;4.57;;;;;;;17.87;89.58;100472.22;5066092;28;20048;-64
2023/06/18 06:24:54;;;;;;;7.07;4.50;;;;;;;17.84;89.44;100467.94;5066043;28;20487;-65
2023/06/18 06:27:20;;;;;;;6.13;4.97;;;;;;;17.96;89.65;100478.88;5066106;28;20456;-64
2023/06/18 06:29:45;;;;;;;5.72;4.90;;;;;;;18.02;89.45;100476.00;5066201;28;20479;-65
2023/06/18 06:32:11;;;;;;;7.65;4.88;;;;;;;18.07;89.00;100476.69;5065763;28;20032;-65
2023/06/18 06:34:36;;;;;;;6.88;5.13;;;;;;;18.06;88.61;100474.13;5066017;28;20024;-64
2023/06/18 06:37:02;;;;;;;6.95;5.20;;;;;;;18.10;88.66;100483.59;5065921;28;20047;-65
2023/06/18 06:39:27;;;;;;;8.20;5.28;;;;;;;18.24;88.94;100490.13;5065831;28;20028;-65
2023/06/18 06:41:52;;;;;;;7.13;5.25;;;;;;;18.28;87.81;100492.56;5065801;28;20059;-65
2023/06/18 06:44:18;;;;;;;9.10;5.82;;;;;;;18.28;87.45;100489.94;5065750;28;20021;-65
2023/06/18 06:46:43;;;;;;;5.97;5.05;;;;;;;18.28;87.07;100482.06;5065594;28;20465;-67
2023/06/18 06:49:09;;;;;;;5.97;4.18;;;;;;;18.32;86.44;100488.91;5065657;28;20021;-64
2023/06/18 06:51:36;;;;;;;9.43;5.20;;;;;;;18.31;86.22;100488.97;5065503;28;20035;-64
2023/06/18 06:54:03;;;;;;;11.15;5.90;;;;;;;18.36;86.28;100491.41;5065396;28;20382;-65
2023/06/18 06:56:30;;;;;;;11.32;5.63;;;;;;;18.43;85.20;100487.63;5065633;28;20021;-63
2023/06/18 06:58:56;;;;;;;5.32;4.65;;;;;;;18.36;84.10;100488.78;5065299;28;20032;-64
2023/06/18 07:01:21;;;;;;;8.25;5.13;;;;;;;18.28;83.24;100496.97;5065274;28;20080;-64
2023/06/18 07:03:47;;;;;;;11.77;5.95;;;;;;;18.27;81.46;100492.63;5065260;28;20033;-64
2023/06/18 07:06:12;;;;;;;8.25;5.03;;;;;;;18.18;81.13;100488.59;5065274;28;20032;-64
2023/06/18 07:08:38;;;;;;;7.75;5.13;;;;;;;18.15;81.09;100500.06;5064992;28;20083;-67
2023/06/18 07:11:03;;;;;;;7.75;5.25;;;;;;;18.02;80.63;100483.91;5064968;28;20021;-69
2023/06/18 07:13:29;;;;;;;5.28;4.63;;;;;;;18.19;78.51;100506.94;5064954;28;20093;-67
2023/06/18 07:15:54;;;;;;;3.72;3.38;;;;;;;18.00;77.97;100498.00;5064773;28;20024;-70
2023/06/18 07:18:20;;;;;;;8.15;4.38;;;;;;;17.86;77.58;100499.38;5064779;28;20029;-67
2023/06/18 07:20:45;;;;;;;8.13;5.00;;;;;;;17.75;78.28;100505.03;5063813;28;20279;-67
2023/06/18 07:23:11;;;;;;;6.50;5.28;;;;;;;17.70;77.77;100504.34;5063736;28;20017;-67
2023/06/18 07:25:36;;;;;;;7.00;5.15;;;;;;;17.61;78.16;100505.56;5064900;28;20021;-62
2023/06/18 07:28:02;;;;;;;5.40;4.28;;;;;;;17.58;78.59;100506.53;5064756;28;20491;-62
2023/06/18 07:30:27;;;;;;;7.10;5.07;;;;;;;17.59;78.68;100513.47;5064781;28;20054;-62
2023/06/18 07:32:52;;;;;;;5.78;4.40;;;;;;;17.61;78.46;100509.94;5065097;28;20028;-64
2023/06/18 07:35:18;;;;;;;4.97;4.18;;;;;;;17.63;77.98;100508.13;5065059;28;20116;-63
2023/06/18 07:37:43;;;;;;;10.27;4.68;;;;;;;17.53;78.05;100503.22;5065079;28;20028;-62
2023/06/18 07:40:09;;;;;;;10.23;5.45;;;;;;;17.62;78.20;100511.66;5064900;28;20021;-65
2023/06/18 07:42:35;;;;;;;8.52;5.38;;;;;;;17.57;78.34;100503.97;5064809;28;20024;-65
2023/06/18 07:45:00;;;;;;;7.85;5.45;;;;;;;17.56;78.56;100496.97;5064897;28;20025;-64
2023/06/18 07:47:25;;;;;;;5.10;4.32;;;;;;;17.61;78.12;100507.31;5064859;28;20021;-64
2023/06/18 07:49:51;;;;;;;7.18;5.47;;;;;;;17.64;78.49;100488.81;5064627;28;20052;-63
2023/06/18 07:52:17;;;;;;;7.30;4.65;;;;;;;17.82;78.28;100488.16;5064830;28;20025;-63
2023/06/18 07:54:42;;;;;;;5.88;4.20;;;;;;;17.93;78.44;100484.25;5064718;28;20029;-63
2023/06/18 07:57:07;;;;;;;9.27;4.97;;;;;;;18.08;77.52;100459.19;5064678;28;20016;-63
2023/06/18 07:59:33;;;;;;;7.13;4.55;;;;;;;18.24;76.76;100477.00;5064668;28;20063;-64
2023/06/18 08:01:58;;;;;;;6.03;4.50;;;;;;;18.32;77.58;100485.44;5064660;28;20094;-63
2023/06/18 08:04:24;;;;;;;6.13;4.43;;;;;;;18.55;77.49;100476.59;5064805;28;20027;-64
2023/06/18 08:06:50;;;;;;;5.80;4.00;;;;;;;18.66;76.90;100472.66;5064603;28;20049;-63
2023/06/18 08:09:17;;;;;;;6.13;3.83;;;;;;;18.77;77.04;100472.25;5064391;28;20051;-64
2023/06/18 08:11:42;;;;;;;7.18;4.38;;;;;;;18.87;75.76;100467.44;5064465;28;20446;-62
2023/06/18 08:14:08;;;;;;;4.18;3.78;;;;;;;18.95;75.98;100466.19;5064421;28;20040;-63
2023/06/18 08:16:34;;;;;;;4.72;3.65;;;;;;;19.11;75.67;100470.81;5064428;28;20027;-66
2023/06/18 08:18:59;;;;;;;4.72;3.60;;;;;;;19.32;75.17;100469.03;5064259;28;20059;-64
2023/06/18 08:21:25;;;;;;;5.18;3.30;;;;;;;19.40;74.36;100457.31;5063229;28;20469;-63
2023/06/18 08:23:51;;;;;;;5.10;3.83;;;;;;;19.50;74.83;100455.13;5063394;28;20025;-67
2023/06/18 08:26:19;;;;;;;7.82;4.15;;;;;;;19.72;74.61;100451.50;5064347;28;20029;-65
2023/06/18 08:28:44;;;;;;;4.32;3.42;;;;;;;19.92;72.95;100458.47;5064560;28;20075;-62
2023/06/18 08:31:10;;;;;;;6.22;4.05;;;;;;;19.96;72.66;100454.75;5064886;28;20024;-62
2023/06/18 08:33:35;;;;;;;5.03;3.33;;;;;;;20.02;71.71;100453.59;5068397;28;20051;-63
2023/06/18 08:36:00;;;;;;;5.40;4.07;;;;;;;19.93;71.24;100453.13;5068384;28;20032;-64
2023/06/18 08:38:26;;;;;;;7.22;4.43;;;;;;;19.90;70.70;100447.16;5068180;28;20045;-66
2023/06/18 08:41:02;;;;;;;6.80;3.53;;;;;;;19.84;70.09;100457.97;5068317;28;20378;-72
2023/06/18 08:43:32;;;;;;;5.43;3.80;;;;;;;19.63;69.30;100439.63;5067870;28;20028;-71
2023/06/18 08:46:15;;;;;;;5.82;3.58;;;;;;;19.57;69.36;100441.59;5067876;28;20075;-67
2023/06/18 08:48:49;;;;;;;4.03;3.60;;;;;;;19.59;69.46;100446.78;5068230;28;20085;-62
2023/06/18 08:51:16;;;;;;;9.98;4.00;;;;;;;19.60;69.37;100453.75;5067765;28;20052;-62
2023/06/18 08:53:52;;;;;;;7.97;3.92;;;;;;;19.62;68.75;100444.00;5066262;28;20039;-60
2023/06/18 08:56:21;;;;;;;6.40;4.00;;;;;;;19.67;68.97;100446.44;5068021;28;20461;-59
2023/06/18 08:58:58;;;;;;;5.35;3.28;;;;;;;19.71;68.54;100445.38;5067575;28;20037;-62
2023/06/18 09:01:26;;;;;;;6.88;4.07;;;;;;;19.67;67.43;100439.41;5067632;28;20013;-64
2023/06/18 09:03:53;;;;;;;7.47;4.57;;;;;;;19.60;67.10;100427.44;5067618;28;20048;-60
2023/06/18 09:06:18;;;;;;;7.40;4.05;;;;;;;19.61;66.44;100436.19;5067655;28;20036;-64
2023/06/18 09:08:46;;;;;;;3.78;3.40;;;;;;;19.62;67.06;100437.88;5067355;28;20025;-60
2023/06/18 09:11:12;;;;;;;3.72;2.83;;;;;;;19.66;66.65;100429.81;5067455;28;20032;-60
2023/06/18 09:13:42;;;;;;;5.22;3.85;;;;;;;19.59;66.61;100423.09;5067393;28;20017;-63
2023/06/18 09:16:09;;;;;;;6.07;3.83;;;;;;;19.62;66.21;100435.25;5067363;28;20013;-63
2023/06/18 09:18:34;;;;;;;6.18;3.25;;;;;;;19.61;65.74;100433.56;5067406;28;20424;-63
2023/06/18 09:21:00;;;;;;;4.95;4.32;;;;;;;19.56;65.36;100441.66;5067086;28;20052;-63
2023/06/18 09:23:25;;;;;;;6.60;3.95;;;;;;;19.35;66.04;100427.69;5067115;28;20049;-61
2023/06/18 09:25:56;;;;;;;5.70;4.22;;;;;;;19.33;66.28;100430.38;5067040;28;20037;-61
2023/06/18 09:28:23;;;;;;;5.65;3.88;;;;;;;19.33;66.31;100425.13;5067084;28;20076;-61
2023/06/18 09:30:53;;;;;;;7.68;4.68;;;;;;;19.38;66.46;100431.03;5067317;28;20021;-60
2023/06/18 09:33:30;;;;;;;4.65;3.75;;;;;;;19.41;66.25;100427.44;5066918;28;20028;-59
2023/06/18 09:36:04;;;;;;;4.38;3.72;;;;;;;19.38;66.11;100427.56;5067083;28;20036;-55
2023/06/18 09:38:36;;;;;;;10.10;4.20;;;;;;;19.41;66.01;100428.28;5066976;28;20031;-63
2023/06/18 09:41:02;;;;;;;7.03;4.28;;;;;;;19.48;65.84;100428.84;5066936;28;20027;-66
2023/06/18 09:43:37;;;;;;;5.85;3.75;;;;;;;19.50;65.75;100432.28;5066005;28;20104;-65
2023/06/18 09:46:06;;;;;;;6.45;3.53;;;;;;;19.65;66.39;100422.81;5066451;28;20033;-59
2023/06/18 09:48:34;;;;;;;4.25;3.60;;;;;;;19.90;65.93;100423.44;5066423;28;20024;-60
2023/06/18 09:51:00;;;;;;;6.30;4.00;;;;;;;20.05;65.22;100429.78;5066483;28;20105;-60
2023/06/18 09:53:26;;;;;;;5.93;3.58;;;;;;;20.15;65.68;100431.06;5066529;28;20021;-60
2023/06/18 09:55:51;;;;;;;6.20;3.15;;;;;;;20.13;63.90;100413.59;5066340;28;20029;-60
2023/06/18 09:58:17;;;;;;;4.13;3.40;;;;;;;19.99;63.63;100437.94;5066564;28;20071;-60
2023/06/18 10:00:42;;;;;;;4.32;2.97;;;;;;;19.68;63.74;100430.56;5066444;28;20472;-59
2023/06/18 10:03:07;;;;;;;4.45;2.60;;;;;;;19.39;64.09;100439.81;5066268;28;20020;-58
2023/06/18 10:05:34;;;;;;;5.25;3.92;;;;;;;19.15;64.57;100434.72;5066339;28;20024;-59
2023/06/18 10:08:03;;;;;;;6.63;3.28;;;;;;;18.86;65.15;100437.66;5066268;28;20036;-59
2023/06/18 10:10:30;;;;;;;6.57;4.47;;;;;;;18.73;65.68;100434.69;5066477;28;20025;-61
2023/06/18 10:13:03;;;;;;;6.70;2.92;;;;;;;18.60;66.50;100438.75;5065930;28;20423;-61
2023/06/18 10:15:29;;;;;;;5.53;3.38;;;;;;;18.39;66.61;100428.19;5065886;28;20029;-59
2023/06/18 10:17:57;;;;;;;3.22;2.80;;;;;;;18.44;66.83;100439.38;5066263;28;20033;-61
2023/06/18 10:20:25;;;;;;;2.83;2.15;;;;;;;18.43;67.35;100437.69;5065759;28;20041;-60
2023/06/18 10:23:03;;;;;;;4.47;2.97;;;;;;;18.43;67.32;100445.56;5066160;28;20021;-60
2023/06/18 10:25:30;;;;;;;3.20;2.83;;;;;;;18.36;67.62;100438.84;5066213;28;20155;-61
2023/06/18 10:27:57;;;;;;;2.83;2.53;;;;;;;18.28;68.19;100437.38;5065844;28;20037;-60
2023/06/18 10:30:23;;;;;;;6.80;2.80;;;;;;;18.28;68.32;100441.78;5065666;28;20025;-60
2023/06/18 10:32:50;;;;;;;4.45;2.85;;;;;;;18.32;68.52;100446.00;5065879;28;20033;-61
2023/06/18 10:35:16;;;;;;;3.45;2.60;;;;;;;18.25;68.48;100440.16;5065503;28;20063;-60
2023/06/18 10:37:43;;;;;;;6.53;2.75;;;;;;;18.23;68.45;100444.59;5065378;28;20033;-60
2023/06/18 10:40:10;;;;;;;5.00;2.95;;;;;;;18.18;68.93;100457.06;5065669;28;20060;-61
2023/06/18 10:42:36;;;;;;;2.38;1.92;;;;;;;18.17;69.12;100450.09;5065738;28;20044;-59
2023/06/18 10:45:12;;;;;;;4.80;2.92;;;;;;;18.13;69.25;100449.34;5065528;28;20036;-59
2023/06/18 10:47:38;;;;;;;2.28;1.80;;;;;;;18.03;69.66;100458.50;5065428;28;20025;-60
2023/06/18 10:50:04;;;;;;;4.78;2.70;;;;;;;18.00;69.52;100448.09;5065089;28;20021;-58
2023/06/18 10:52:40;;;;;;;6.45;2.40;;;;;;;18.02;69.91;100436.63;5065339;28;20017;-59
2023/06/18 10:55:18;;;;;;;3.60;3.22;;;;;;;18.06;70.07;100448.72;5065536;28;20025;-60
2023/06/18 10:58:00;;;;;;;4.82;2.97;;;;;;;18.08;70.20;100441.63;5065320;28;20029;-60
2023/06/18 11:00:40;;;;;;;3.58;2.63;;;;;;;18.14;70.57;100444.97;5064932;28;20024;-59
2023/06/18 11:03:13;;;;;;;3.30;2.53;;;;;;;18.21;70.35;100447.28;5065518;28;20025;-56
2023/06/18 11:05:45;;;;;;;4.68;2.90;;;;;;;18.24;70.56;100443.69;5065331;28;20159;-58
2023/06/18 11:08:13;;;;;;;4.10;3.03;;;;;;;18.35;70.39;100442.41;5065199;28;20037;-58
2023/06/18 11:10:49;;;;;;;4.38;3.00;;;;;;;18.26;70.81;100441.84;5065172;28;20031;-59
2023/06/18 11:13:15;;;;;;;3.80;2.67;;;;;;;18.12;71.23;100421.38;5065108;28;20081;-60
2023/06/18 11:15:57;;;;;;;3.30;2.85;;;;;;;18.27;71.43;100433.06;5065033;28;20032;-57
2023/06/18 11:18:26;;;;;;;4.27;2.90;;;;;;;18.24;71.57;100427.94;5065214;28;20520;-59
2023/06/18 11:20:53;;;;;;;3.70;2.78;;;;;;;18.41;71.60;100421.13;5064814;28;20491;-60
2023/06/18 11:23:19;;;;;;;5.63;3.25;;;;;;;18.42;71.75;100438.59;5065087;28;20025;-60